Time,TemperatureF,DewpointF,PressureIn,WindDirection,WindDirectionDegrees,WindSpeedMPH,WindSpeedGustMPH,Humidity,HourlyPrecipIn,Conditions,Clouds,dailyrainin,SoftwareType,DateUTC
2013-02-16 00:00:00,23.9,17.7,30.20,WNW,298,3.0,3.0,77,0.00,,,0.00,Wunderground v.1.15,2013-02-16 05:00:00,
2013-02-16 00:05:00,23.8,17.6,30.20,WNW,293,3.0,3.0,77,0.00,,,0.00,Wunderground v.1.15,2013-02-16 05:05:00,
2013-02-16 00:10:00,23.7,18.1,30.20,WNW,298,2.0,2.0,79,0.00,,,0.00,Wunderground v.1.15,2013-02-16 05:10:00,
2013-02-16 00:15:00,23.5,17.9,30.20,NW,308,2.0,2.0,79,0.00,,,0.00,Wunderground v.1.15,2013-02-16 05:15:00,
2013-02-16 00:25:00,23.4,18.4,30.20,West,281,2.0,3.0,81,0.00,,,0.00,Wunderground v.1.15,2013-02-16 05:25:00,
2013-02-16 00:30:00,23.4,18.4,30.20,West,281,2.0,2.0,81,0.00,,,0.00,Wunderground v.1.15,2013-02-16 05:30:00,
2013-02-16 00:35:00,23.4,18.7,30.20,WNW,285,2.0,6.0,82,0.00,,,0.00,Wunderground v.1.15,2013-02-16 05:35:00,
2013-02-16 00:40:00,23.5,18.5,30.20,WNW,297,3.0,6.0,81,0.00,,,0.00,Wunderground v.1.15,2013-02-16 05:40:00,
2013-02-16 00:45:00,23.6,18.6,30.20,West,281,3.0,6.0,81,0.00,,,0.00,Wunderground v.1.15,2013-02-16 05:45:00,
2013-02-16 00:55:00,23.6,18.0,30.19,WNW,287,3.0,6.0,79,0.00,,,0.00,Wunderground v.1.15,2013-02-16 05:55:00,
2013-02-16 01:00:00,23.6,18.3,30.19,NW,313,3.0,6.0,80,0.00,,,0.00,Wunderground v.1.15,2013-02-16 06:00:00,
2013-02-16 01:10:00,23.6,18.0,30.19,WNW,296,4.0,4.0,79,0.00,,,0.00,Wunderground v.1.15,2013-02-16 06:10:00,
2013-02-16 01:15:00,23.6,18.0,30.19,NNW,327,4.0,6.0,79,0.00,,,0.00,Wunderground v.1.15,2013-02-16 06:15:00,
2013-02-16 01:20:00,23.5,18.2,30.19,NW,318,3.0,6.0,80,0.00,,,0.00,Wunderground v.1.15,2013-02-16 06:20:00,
2013-02-16 01:35:00,23.4,18.4,30.19,NE,50,3.0,6.0,81,0.00,,,0.00,Wunderground v.1.15,2013-02-16 06:35:00,
2013-02-16 01:40:00,23.4,18.4,30.19,NNE,13,3.0,6.0,81,0.00,,,0.00,Wunderground v.1.15,2013-02-16 06:40:00,
2013-02-16 01:45:00,23.5,18.2,30.19,NNE,30,3.0,6.0,80,0.00,,,0.00,Wunderground v.1.15,2013-02-16 06:45:00,
2013-02-16 01:50:00,23.5,18.2,30.19,East,96,4.0,4.0,80,0.00,,,0.00,Wunderground v.1.15,2013-02-16 06:50:00,
2013-02-16 02:00:00,23.6,18.3,30.19,ENE,65,4.0,4.0,80,0.00,,,0.00,Wunderground v.1.15,2013-02-16 07:00:00,
2013-02-16 02:05:00,23.7,18.4,30.18,NNE,18,4.0,5.0,80,0.00,,,0.00,Wunderground v.1.15,2013-02-16 07:05:00,
2013-02-16 02:10:00,23.8,18.2,30.18,NE,39,4.0,4.0,79,0.00,,,0.00,Wunderground v.1.15,2013-02-16 07:10:00,
2013-02-16 02:15:00,23.9,18.3,30.18,NE,37,4.0,6.0,79,0.00,,,0.00,Wunderground v.1.15,2013-02-16 07:15:00,
2013-02-16 02:20:00,23.8,18.2,30.18,ENE,61,4.0,4.0,79,0.00,,,0.00,Wunderground v.1.15,2013-02-16 07:20:00,
2013-02-16 02:25:00,23.8,18.2,30.18,NE,51,5.0,5.0,79,0.00,,,0.00,Wunderground v.1.15,2013-02-16 07:25:00,
2013-02-16 02:30:00,23.8,18.5,30.18,NE,43,4.0,6.0,80,0.00,,,0.00,Wunderground v.1.15,2013-02-16 07:30:00,
2013-02-16 02:40:00,23.9,18.6,30.18,ENE,58,5.0,6.0,80,0.00,,,0.00,Wunderground v.1.15,2013-02-16 07:40:00,
2013-02-16 02:45:00,23.9,18.6,30.18,NNE,20,3.0,6.0,80,0.00,,,0.00,Wunderground v.1.15,2013-02-16 07:45:00,
2013-02-16 02:50:00,23.8,18.5,30.18,ENE,69,1.0,6.0,80,0.00,,,0.00,Wunderground v.1.15,2013-02-16 07:50:00,
2013-02-16 02:55:00,23.7,18.4,30.18,East,82,1.0,6.0,80,0.00,,,0.00,Wunderground v.1.15,2013-02-16 07:55:00,
2013-02-16 03:05:00,23.2,19.1,30.18,ENE,65,1.0,1.0,84,0.00,,,0.00,Wunderground v.1.15,2013-02-16 08:05:00,
2013-02-16 03:10:00,23.0,19.4,30.18,ENE,67,1.0,1.0,86,0.00,,,0.00,Wunderground v.1.15,2013-02-16 08:10:00,
2013-02-16 03:15:00,22.8,19.2,30.18,ENE,58,3.0,3.0,86,0.00,,,0.00,Wunderground v.1.15,2013-02-16 08:15:00,
2013-02-16 03:20:00,22.6,19.3,30.17,NE,43,4.0,4.0,87,0.00,,,0.00,Wunderground v.1.15,2013-02-16 08:20:00,
2013-02-16 03:25:00,22.6,19.3,30.17,NE,51,3.0,4.0,87,0.00,,,0.00,Wunderground v.1.15,2013-02-16 08:25:00,
2013-02-16 03:30:00,22.5,19.5,30.17,NE,35,3.0,7.0,88,0.00,,,0.00,Wunderground v.1.15,2013-02-16 08:30:00,
2013-02-16 03:35:00,22.5,19.5,30.17,NNW,343,4.0,9.0,88,0.00,,,0.00,Wunderground v.1.15,2013-02-16 08:35:00,
2013-02-16 03:40:00,22.5,19.5,30.17,NNE,16,3.0,9.0,88,0.00,,,0.00,Wunderground v.1.15,2013-02-16 08:40:00,
2013-02-16 03:45:00,22.4,19.4,30.17,ENE,67,3.0,9.0,88,0.00,,,0.00,Wunderground v.1.15,2013-02-16 08:45:00,
2013-02-16 03:50:00,22.3,19.6,30.17,East,93,3.0,3.0,89,0.00,,,0.00,Wunderground v.1.15,2013-02-16 08:50:00,
2013-02-16 03:55:00,22.2,19.5,30.17,NE,41,3.0,9.0,89,0.00,,,0.00,Wunderground v.1.15,2013-02-16 08:55:00,
2013-02-16 04:05:00,22.0,19.3,30.17,SE,127,4.0,9.0,89,0.00,,,0.00,Wunderground v.1.15,2013-02-16 09:05:00,
2013-02-16 04:10:00,22.0,19.5,30.16,ENE,64,4.0,4.0,90,0.00,,,0.00,Wunderground v.1.15,2013-02-16 09:10:00,
2013-02-16 04:20:00,21.9,19.4,30.16,NE,56,5.0,9.0,90,0.00,,,0.00,Wunderground v.1.15,2013-02-16 09:20:00,
2013-02-16 04:25:00,21.8,19.3,30.16,NW,324,5.0,9.0,90,0.00,,,0.00,Wunderground v.1.15,2013-02-16 09:25:00,
2013-02-16 04:30:00,21.8,19.1,30.16,NNE,13,6.0,9.0,89,0.00,,,0.00,Wunderground v.1.15,2013-02-16 09:30:00,
2013-02-16 04:35:00,21.8,19.1,30.16,NE,34,6.0,9.0,89,0.00,,,0.00,Wunderground v.1.15,2013-02-16 09:35:00,
2013-02-16 04:40:00,21.8,19.1,30.16,NNE,20,6.0,9.0,89,0.00,,,0.00,Wunderground v.1.15,2013-02-16 09:40:00,
2013-02-16 04:45:00,21.8,19.1,30.16,East,79,5.0,9.0,89,0.00,,,0.00,Wunderground v.1.15,2013-02-16 09:45:00,
2013-02-16 04:55:00,21.7,18.7,30.16,East,85,5.0,9.0,88,0.00,,,0.00,Wunderground v.1.15,2013-02-16 09:55:00,
2013-02-16 05:00:00,21.7,18.7,30.16,NE,50,5.0,9.0,88,0.00,,,0.00,Wunderground v.1.15,2013-02-16 10:00:00,
2013-02-16 05:05:00,21.6,18.6,30.16,NNE,29,6.0,10.0,88,0.00,,,0.00,Wunderground v.1.15,2013-02-16 10:05:00,
2013-02-16 05:10:00,21.5,18.5,30.16,North,353,6.0,9.0,88,0.00,,,0.00,Wunderground v.1.15,2013-02-16 10:10:00,
2013-02-16 05:15:00,21.5,18.2,30.16,ENE,68,7.0,9.0,87,0.00,,,0.00,Wunderground v.1.15,2013-02-16 10:15:00,
2013-02-16 05:20:00,21.4,18.1,30.16,NE,50,7.0,7.0,87,0.00,,,0.00,Wunderground v.1.15,2013-02-16 10:20:00,
2013-02-16 05:30:00,21.2,17.4,30.16,NNW,333,7.0,9.0,85,0.00,,,0.00,Wunderground v.1.15,2013-02-16 10:30:00,
2013-02-16 05:35:00,21.2,17.1,30.16,ESE,105,7.0,9.0,84,0.00,,,0.00,Wunderground v.1.15,2013-02-16 10:35:00,
2013-02-16 05:40:00,21.2,16.8,30.16,NNE,30,7.0,9.0,83,0.00,,,0.00,Wunderground v.1.15,2013-02-16 10:40:00,
2013-02-16 05:45:00,21.1,16.5,30.16,SSE,150,7.0,9.0,82,0.00,,,0.00,Wunderground v.1.15,2013-02-16 10:45:00,
2013-02-16 05:50:00,21.1,16.7,30.16,NW,311,7.0,7.0,83,0.00,,,0.00,Wunderground v.1.15,2013-02-16 10:50:00,
2013-02-16 06:00:00,21.0,16.6,30.16,NNW,334,7.0,7.0,83,0.00,,,0.00,Wunderground v.1.15,2013-02-16 11:00:00,
2013-02-16 06:05:00,20.9,16.5,30.16,North,11,7.0,9.0,83,0.00,,,0.00,Wunderground v.1.15,2013-02-16 11:05:00,
2013-02-16 06:10:00,20.9,16.5,30.16,NE,37,7.0,9.0,83,0.00,,,0.00,Wunderground v.1.15,2013-02-16 11:10:00,
2013-02-16 06:15:00,20.9,16.8,30.16,NNE,20,6.0,9.0,84,0.00,,,0.00,Wunderground v.1.15,2013-02-16 11:15:00,
2013-02-16 06:20:00,20.7,16.6,30.16,NNE,30,6.0,9.0,84,0.00,,,0.00,Wunderground v.1.15,2013-02-16 11:20:00,
2013-02-16 06:25:00,20.6,16.5,30.16,ENE,67,6.0,9.0,84,0.00,,,0.00,Wunderground v.1.15,2013-02-16 11:25:00,
2013-02-16 06:35:00,20.3,16.5,30.15,NNE,32,6.0,9.0,85,0.00,,,0.00,Wunderground v.1.15,2013-02-16 11:35:00,
2013-02-16 06:40:00,20.2,16.4,30.15,NE,34,5.0,9.0,85,0.00,,,0.00,Wunderground v.1.15,2013-02-16 11:40:00,
2013-02-16 06:45:00,20.0,16.2,30.15,NE,40,4.0,9.0,85,0.00,,,0.00,Wunderground v.1.15,2013-02-16 11:45:00,
2013-02-16 06:50:00,19.8,16.0,30.15,East,100,4.0,4.0,85,0.00,,,0.00,Wunderground v.1.15,2013-02-16 11:50:00,
2013-02-16 06:55:00,19.6,16.1,30.15,NE,34,3.0,9.0,86,0.00,,,0.00,Wunderground v.1.15,2013-02-16 11:55:00,
2013-02-16 07:05:00,19.3,15.8,30.16,ENE,68,3.0,5.0,86,0.00,,,0.00,Wunderground v.1.15,2013-02-16 12:05:00,
2013-02-16 07:10:00,19.3,16.1,30.16,ENE,63,3.0,3.0,87,0.00,,,0.00,Wunderground v.1.15,2013-02-16 12:10:00,
2013-02-16 07:15:00,19.3,16.1,30.16,NNE,30,2.0,4.0,87,0.00,,,0.00,Wunderground v.1.15,2013-02-16 12:15:00,
2013-02-16 07:20:00,19.3,16.1,30.16,East,98,2.0,2.0,87,0.00,,,0.00,Wunderground v.1.15,2013-02-16 12:20:00,
2013-02-16 07:25:00,19.5,16.5,30.16,NE,47,2.0,2.0,88,0.00,,,0.00,Wunderground v.1.15,2013-02-16 12:25:00,
2013-02-16 07:30:00,19.7,16.7,30.16,NE,51,2.0,2.0,88,0.00,,,0.00,Wunderground v.1.15,2013-02-16 12:30:00,
2013-02-16 07:35:00,20.0,17.0,30.16,NNE,18,2.0,4.0,88,0.00,,,0.00,Wunderground v.1.15,2013-02-16 12:35:00,
2013-02-16 07:45:00,20.5,17.0,30.17,NNE,25,3.0,5.0,86,0.00,,,0.00,Wunderground v.1.15,2013-02-16 12:45:00,
2013-02-16 07:50:00,20.6,16.5,30.16,ESE,106,3.0,3.0,84,0.00,,,0.00,Wunderground v.1.15,2013-02-16 12:50:00,
2013-02-16 07:55:00,20.5,16.2,30.17,East,91,3.0,13.0,83,0.00,,,0.00,Wunderground v.1.15,2013-02-16 12:55:00,
2013-02-16 08:05:00,20.2,15.6,30.17,East,101,3.0,13.0,82,0.00,,,0.00,Wunderground v.1.15,2013-02-16 13:05:00,
2013-02-16 08:10:00,20.1,15.5,30.17,ESE,114,2.0,13.0,82,0.00,,,0.00,Wunderground v.1.15,2013-02-16 13:10:00,
2013-02-16 08:15:00,20.0,15.4,30.17,East,88,2.0,13.0,82,0.00,,,0.00,Wunderground v.1.15,2013-02-16 13:15:00,
2013-02-16 08:20:00,19.9,15.0,30.17,East,100,2.0,2.0,81,0.00,,,0.00,Wunderground v.1.15,2013-02-16 13:20:00,
2013-02-16 08:30:00,19.6,14.7,30.17,ESE,106,3.0,3.0,81,0.00,,,0.00,Wunderground v.1.15,2013-02-16 13:30:00,
2013-02-16 08:35:00,19.5,14.6,30.17,ENE,58,3.0,13.0,81,0.00,,,0.00,Wunderground v.1.15,2013-02-16 13:35:00,
2013-02-16 08:40:00,19.4,14.5,30.17,NNE,22,2.0,13.0,81,0.00,,,0.00,Wunderground v.1.15,2013-02-16 13:40:00,
2013-02-16 08:50:00,19.8,14.9,30.18,ENE,70,3.0,3.0,81,0.00,,,0.00,Wunderground v.1.15,2013-02-16 13:50:00,
2013-02-16 08:55:00,20.2,14.1,30.17,East,97,5.0,5.0,77,0.00,,,0.00,Wunderground v.1.15,2013-02-16 13:55:00,
2013-02-16 09:00:00,20.6,14.2,30.17,East,82,5.0,13.0,76,0.00,,,0.00,Wunderground v.1.15,2013-02-16 14:00:00,
2013-02-16 09:10:00,20.9,14.2,30.17,ENE,61,4.0,13.0,75,0.00,,,0.00,Wunderground v.1.15,2013-02-16 14:10:00,
2013-02-16 09:15:00,20.7,14.0,30.17,NNE,30,6.0,13.0,75,0.00,,,0.00,Wunderground v.1.15,2013-02-16 14:15:00,
2013-02-16 09:25:00,20.7,13.7,30.17,NE,42,7.0,10.0,74,0.00,,,0.00,Wunderground v.1.15,2013-02-16 14:25:00,
2013-02-16 09:30:00,20.6,13.3,30.17,NW,323,6.0,13.0,73,0.00,,,0.00,Wunderground v.1.15,2013-02-16 14:30:00,
2013-02-16 09:40:00,20.5,13.2,30.17,NNE,18,5.0,13.0,73,0.00,,,0.00,Wunderground v.1.15,2013-02-16 14:40:00,
2013-02-16 09:45:00,20.6,13.9,30.17,NE,43,6.0,13.0,75,0.00,,,0.00,Wunderground v.1.15,2013-02-16 14:45:00,
2013-02-16 09:55:00,20.5,13.8,30.17,NE,34,7.0,13.0,75,0.00,,,0.00,Wunderground v.1.15,2013-02-16 14:55:00,
2013-02-16 10:00:00,20.6,14.5,30.18,NE,39,7.0,7.0,77,0.00,,,0.00,Wunderground v.1.15,2013-02-16 15:00:00,
2013-02-16 10:10:00,20.4,13.7,30.17,SSE,160,8.0,8.0,75,0.00,,,0.00,Wunderground v.1.15,2013-02-16 15:10:00,
2013-02-16 10:15:00,20.8,14.4,30.18,ENE,76,8.0,8.0,76,0.00,,,0.00,Wunderground v.1.15,2013-02-16 15:15:00,
2013-02-16 10:20:00,21.1,13.8,30.18,East,85,5.0,5.0,73,0.00,,,0.00,Wunderground v.1.15,2013-02-16 15:20:00,
2013-02-16 10:30:00,20.5,13.2,30.18,NNW,336,6.0,6.0,73,0.00,,,0.00,Wunderground v.1.15,2013-02-16 15:30:00,
2013-02-16 10:35:00,20.5,13.5,30.18,NNE,13,6.0,19.0,74,0.00,,,0.00,Wunderground v.1.15,2013-02-16 15:35:00,
2013-02-16 10:45:00,20.4,13.7,30.18,East,91,7.0,19.0,75,0.00,,,0.00,Wunderground v.1.15,2013-02-16 15:45:00,
2013-02-16 10:50:00,20.5,14.1,30.18,East,97,4.0,4.0,76,0.00,,,0.00,Wunderground v.1.15,2013-02-16 15:50:00,
2013-02-16 11:00:00,20.1,14.3,30.18,ENE,70,7.0,7.0,78,0.00,,,0.00,Wunderground v.1.15,2013-02-16 16:00:00,
2013-02-16 11:05:00,20.0,14.5,30.18,NE,46,6.0,14.0,79,0.00,,,0.00,Wunderground v.1.15,2013-02-16 16:05:00,
2013-02-16 11:10:00,19.6,15.0,30.18,NNW,347,7.0,19.0,82,0.00,,,0.00,Wunderground v.1.15,2013-02-16 16:10:00,
2013-02-16 11:15:00,19.6,15.0,30.18,NNW,328,7.0,19.0,82,0.00,,,0.00,Wunderground v.1.15,2013-02-16 16:15:00,
2013-02-16 11:20:00,19.9,14.7,30.18,North,11,6.0,19.0,80,0.00,,,0.00,Wunderground v.1.15,2013-02-16 16:20:00,
2013-02-16 11:30:00,19.9,13.6,30.18,ESE,121,8.0,8.0,76,0.00,,,0.00,Wunderground v.1.15,2013-02-16 16:30:00,
2013-02-16 11:35:00,20.0,13.9,30.18,NNW,347,7.0,19.0,77,0.00,,,0.00,Wunderground v.1.15,2013-02-16 16:35:00,
2013-02-16 11:40:00,20.0,13.9,30.18,East,99,5.0,5.0,77,0.00,,,0.00,Wunderground v.1.15,2013-02-16 16:40:00,
2013-02-16 11:45:00,20.3,13.6,30.18,ESE,117,4.0,19.0,75,0.00,,,0.00,Wunderground v.1.15,2013-02-16 16:45:00,
2013-02-16 11:55:00,20.5,14.1,30.18,NE,46,3.0,5.0,76,0.00,,,0.00,Wunderground v.1.15,2013-02-16 16:55:00,
2013-02-16 12:00:00,20.5,13.8,30.18,ENE,60,3.0,5.0,75,0.00,,,0.00,Wunderground v.1.15,2013-02-16 17:00:00,
2013-02-16 12:10:00,20.6,13.0,30.18,NE,40,7.0,11.0,72,0.00,,,0.00,Wunderground v.1.15,2013-02-16 17:10:00,
2013-02-16 12:15:00,20.8,14.1,30.18,NE,40,6.0,11.0,75,0.00,,,0.00,Wunderground v.1.15,2013-02-16 17:15:00,
2013-02-16 12:20:00,20.4,14.0,30.18,East,85,5.0,5.0,76,0.00,,,0.00,Wunderground v.1.15,2013-02-16 17:20:00,
2013-02-16 12:30:00,19.9,13.3,30.18,NE,36,3.0,3.0,75,0.00,,,0.00,Wunderground v.1.15,2013-02-16 17:30:00,
2013-02-16 12:35:00,20.1,13.7,30.18,East,97,3.0,19.0,76,0.00,,,0.00,Wunderground v.1.15,2013-02-16 17:35:00,
2013-02-16 12:40:00,20.2,13.8,30.18,ESE,105,3.0,3.0,76,0.00,,,0.00,Wunderground v.1.15,2013-02-16 17:40:00,
2013-02-16 12:50:00,19.9,12.6,30.17,ENE,71,3.0,19.0,73,0.00,,,0.00,Wunderground v.1.15,2013-02-16 17:50:00,
2013-02-16 12:55:00,20.1,12.5,30.17,NW,326,4.0,19.0,72,0.00,,,0.00,Wunderground v.1.15,2013-02-16 17:55:00,
2013-02-16 13:05:00,20.2,12.3,30.17,NNE,16,4.0,19.0,71,0.00,,,0.00,Wunderground v.1.15,2013-02-16 18:05:00,
2013-02-16 13:10:00,20.2,12.9,30.17,East,98,4.0,19.0,73,0.00,,,0.00,Wunderground v.1.15,2013-02-16 18:10:00,
2013-02-16 13:15:00,20.4,13.1,30.18,SE,139,3.0,19.0,73,0.00,,,0.00,Wunderground v.1.15,2013-02-16 18:15:00,
2013-02-16 13:25:00,20.3,12.7,30.17,ENE,58,2.0,4.0,72,0.00,,,0.00,Wunderground v.1.15,2013-02-16 18:25:00,
2013-02-16 13:30:00,19.8,12.5,30.17,NE,46,3.0,19.0,73,0.00,,,0.00,Wunderground v.1.15,2013-02-16 18:30:00,
2013-02-16 13:40:00,19.6,12.0,30.17,ENE,74,4.0,19.0,72,0.00,,,0.00,Wunderground v.1.15,2013-02-16 18:40:00,
2013-02-16 13:45:00,19.9,12.3,30.17,ESE,112,3.0,19.0,72,0.00,,,0.00,Wunderground v.1.15,2013-02-16 18:45:00,
2013-02-16 13:50:00,20.2,12.0,30.17,East,98,3.0,3.0,70,0.00,,,0.00,Wunderground v.1.15,2013-02-16 18:50:00,
2013-02-16 14:00:00,19.6,11.7,30.17,NE,53,5.0,5.0,71,0.00,,,0.00,Wunderground v.1.15,2013-02-16 19:00:00,
2013-02-16 14:10:00,19.5,11.0,30.17,ENE,58,4.0,7.0,69,0.00,,,0.00,Wunderground v.1.15,2013-02-16 19:10:00,
2013-02-16 14:15:00,19.7,11.5,30.17,East,94,3.0,7.0,70,0.00,,,0.00,Wunderground v.1.15,2013-02-16 19:15:00,
2013-02-16 14:20:00,20.0,11.5,30.17,ENE,63,3.0,3.0,69,0.00,,,0.00,Wunderground v.1.15,2013-02-16 19:20:00,
2013-02-16 14:30:00,20.2,10.3,30.17,East,101,3.0,3.0,65,0.00,,,0.00,Wunderground v.1.15,2013-02-16 19:30:00,
2013-02-16 14:35:00,20.2,10.3,30.17,ENE,61,3.0,13.0,65,0.00,,,0.00,Wunderground v.1.15,2013-02-16 19:35:00,
2013-02-16 14:40:00,19.9,11.0,30.17,NE,37,3.0,13.0,68,0.00,,,0.00,Wunderground v.1.15,2013-02-16 19:40:00,
2013-02-16 14:45:00,19.6,10.1,30.17,ESE,112,3.0,13.0,66,0.00,,,0.00,Wunderground v.1.15,2013-02-16 19:45:00,
2013-02-16 14:50:00,19.5,10.0,30.17,ENE,71,3.0,3.0,66,0.00,,,0.00,Wunderground v.1.15,2013-02-16 19:50:00,
2013-02-16 14:55:00,19.6,9.7,30.17,East,80,3.0,7.0,65,0.00,,,0.00,Wunderground v.1.15,2013-02-16 19:55:00,
2013-02-16 15:00:00,19.4,9.2,30.18,East,86,3.0,3.0,64,0.00,,,0.00,Wunderground v.1.15,2013-02-16 20:00:00,
2013-02-16 15:10:00,19.3,9.4,30.18,ENE,58,4.0,4.0,65,0.00,,,0.00,Wunderground v.1.15,2013-02-16 20:10:00,
2013-02-16 15:20:00,18.6,11.1,30.18,SE,124,8.0,8.0,72,0.00,,,0.00,Wunderground v.1.15,2013-02-16 20:20:00,
2013-02-16 15:25:00,18.8,12.2,30.18,ESE,104,7.0,13.0,75,0.00,,,0.00,Wunderground v.1.15,2013-02-16 20:25:00,
2013-02-16 15:30:00,19.1,11.9,30.18,East,91,4.0,4.0,73,0.00,,,0.00,Wunderground v.1.15,2013-02-16 20:30:00,
2013-02-16 15:35:00,18.8,11.6,30.18,ENE,68,3.0,13.0,73,0.00,,,0.00,Wunderground v.1.15,2013-02-16 20:35:00,
2013-02-16 15:45:00,18.6,12.0,30.18,ENE,65,6.0,13.0,75,0.00,,,0.00,Wunderground v.1.15,2013-02-16 20:45:00,
2013-02-16 15:50:00,18.9,12.0,30.18,ENE,58,5.0,5.0,74,0.00,,,0.00,Wunderground v.1.15,2013-02-16 20:50:00,
2013-02-16 15:55:00,18.6,12.0,30.18,ESE,115,4.0,13.0,75,0.00,,,0.00,Wunderground v.1.15,2013-02-16 20:55:00,
2013-02-16 16:00:00,18.5,11.9,30.18,ESE,113,3.0,3.0,75,0.00,,,0.00,Wunderground v.1.15,2013-02-16 21:00:00,
2013-02-16 16:10:00,18.5,10.7,30.19,ENE,68,4.0,5.0,71,0.00,,,0.00,Wunderground v.1.15,2013-02-16 21:10:00,
2013-02-16 16:15:00,18.4,12.1,30.19,NNE,29,4.0,6.0,76,0.00,,,0.00,Wunderground v.1.15,2013-02-16 21:15:00,
2013-02-16 16:25:00,17.5,11.5,30.19,NE,41,4.0,4.0,77,0.00,,,0.00,Wunderground v.1.15,2013-02-16 21:25:00,
2013-02-16 16:30:00,17.7,12.0,30.19,ENE,63,3.0,5.0,78,0.00,,,0.00,Wunderground v.1.15,2013-02-16 21:30:00,
2013-02-16 16:35:00,17.3,12.5,30.19,ESE,114,3.0,21.0,81,0.00,,,0.00,Wunderground v.1.15,2013-02-16 21:35:00,
2013-02-16 16:40:00,17.1,12.8,30.19,East,84,4.0,21.0,83,0.00,,,0.00,Wunderground v.1.15,2013-02-16 21:40:00,
2013-02-16 16:50:00,17.7,12.3,30.19,East,79,3.0,21.0,79,0.00,,,0.00,Wunderground v.1.15,2013-02-16 21:50:00,
2013-02-16 16:55:00,17.6,11.6,30.19,ENE,74,4.0,21.0,77,0.00,,,0.00,Wunderground v.1.15,2013-02-16 21:55:00,
2013-02-16 17:00:00,17.6,11.9,30.19,ENE,65,4.0,21.0,78,0.00,,,0.00,Wunderground v.1.15,2013-02-16 22:00:00,
2013-02-16 17:05:00,17.3,11.6,30.19,NE,52,3.0,21.0,78,0.00,,,0.00,Wunderground v.1.15,2013-02-16 22:05:00,
2013-02-16 17:10:00,17.5,11.8,30.19,ENE,63,3.0,3.0,78,0.00,,,0.00,Wunderground v.1.15,2013-02-16 22:10:00,
2013-02-16 17:20:00,18.3,11.4,30.19,ENE,65,3.0,21.0,74,0.00,,,0.00,Wunderground v.1.15,2013-02-16 22:20:00,
2013-02-16 17:30:00,17.0,12.5,30.20,ENE,72,5.0,5.0,82,0.00,,,0.00,Wunderground v.1.15,2013-02-16 22:30:00,
2013-02-16 17:35:00,16.7,12.7,30.20,East,79,3.0,21.0,84,0.00,,,0.00,Wunderground v.1.15,2013-02-16 22:35:00,
2013-02-16 17:40:00,16.7,12.4,30.20,ENE,71,2.0,21.0,83,0.00,,,0.00,Wunderground v.1.15,2013-02-16 22:40:00,
2013-02-16 17:45:00,16.6,11.8,30.20,East,89,3.0,21.0,81,0.00,,,0.00,Wunderground v.1.15,2013-02-16 22:45:00,
2013-02-16 17:50:00,16.3,11.8,30.20,East,85,5.0,21.0,82,0.00,,,0.00,Wunderground v.1.15,2013-02-16 22:50:00,
2013-02-16 18:00:00,15.8,11.8,30.20,ENE,68,5.0,5.0,84,0.00,,,0.00,Wunderground v.1.15,2013-02-16 23:00:00,
2013-02-16 18:10:00,15.6,11.1,30.20,ENE,78,3.0,3.0,82,0.00,,,0.00,Wunderground v.1.15,2013-02-16 23:10:00,
2013-02-16 18:15:00,15.6,11.1,30.20,ENE,60,3.0,3.0,82,0.00,,,0.00,Wunderground v.1.15,2013-02-16 23:15:00,
2013-02-16 18:20:00,15.5,10.7,30.20,ENE,70,3.0,3.0,81,0.00,,,0.00,Wunderground v.1.15,2013-02-16 23:20:00,
2013-02-16 18:25:00,15.4,10.6,30.21,ENE,75,3.0,3.0,81,0.00,,,0.00,Wunderground v.1.15,2013-02-16 23:25:00,
2013-02-16 18:35:00,15.2,10.7,30.21,NE,56,2.0,4.0,82,0.00,,,0.00,Wunderground v.1.15,2013-02-16 23:35:00,
2013-02-16 18:40:00,15.2,10.7,30.21,ENE,65,2.0,2.0,82,0.00,,,0.00,Wunderground v.1.15,2013-02-16 23:40:00,
2013-02-16 18:45:00,15.1,10.9,30.21,ENE,76,1.0,16.0,83,0.00,,,0.00,Wunderground v.1.15,2013-02-16 23:45:00,
2013-02-16 18:50:00,15.1,10.9,30.21,ENE,63,1.0,16.0,83,0.00,,,0.00,Wunderground v.1.15,2013-02-16 23:50:00,
2013-02-16 18:55:00,15.1,10.9,30.21,East,80,1.0,16.0,83,0.00,,,0.00,Wunderground v.1.15,2013-02-16 23:55:00,
2013-02-16 19:05:00,15.2,11.0,30.22,East,79,2.0,16.0,83,0.00,,,0.00,Wunderground v.1.15,2013-02-17 00:05:00,
2013-02-16 19:10:00,15.3,11.1,30.22,ENE,63,2.0,2.0,83,0.00,,,0.00,Wunderground v.1.15,2013-02-17 00:10:00,
2013-02-16 19:20:00,15.4,11.4,30.22,East,84,1.0,16.0,84,0.00,,,0.00,Wunderground v.1.15,2013-02-17 00:20:00,
2013-02-16 19:25:00,15.4,11.4,30.22,East,98,1.0,16.0,84,0.00,,,0.00,Wunderground v.1.15,2013-02-17 00:25:00,
2013-02-16 19:30:00,15.3,11.3,30.23,East,86,1.0,1.0,84,0.00,,,0.00,Wunderground v.1.15,2013-02-17 00:30:00,
2013-02-16 19:40:00,15.2,11.5,30.23,ENE,72,1.0,16.0,85,0.00,,,0.00,Wunderground v.1.15,2013-02-17 00:40:00,
2013-02-16 19:45:00,15.1,11.4,30.23,ENE,65,1.0,16.0,85,0.00,,,0.00,Wunderground v.1.15,2013-02-17 00:45:00,
2013-02-16 19:50:00,14.9,11.5,30.23,NE,56,1.0,16.0,86,0.00,,,0.00,Wunderground v.1.15,2013-02-17 00:50:00,
2013-02-16 19:55:00,14.8,11.4,30.23,East,85,1.0,16.0,86,0.00,,,0.00,Wunderground v.1.15,2013-02-17 00:55:00,
2013-02-16 20:00:00,14.7,11.3,30.23,ENE,69,1.0,1.0,86,0.00,,,0.00,Wunderground v.1.15,2013-02-17 01:00:00,
2013-02-16 20:10:00,14.5,11.3,30.23,East,89,0.0,0.0,87,0.00,,,0.00,Wunderground v.1.15,2013-02-17 01:10:00,
2013-02-16 20:20:00,14.3,11.1,30.23,ENE,72,0.0,0.0,87,0.00,,,0.00,Wunderground v.1.15,2013-02-17 01:20:00,
2013-02-16 20:25:00,14.3,11.4,30.23,North,11,0.0,3.0,88,0.00,,,0.00,Wunderground v.1.15,2013-02-17 01:25:00,
2013-02-16 20:30:00,14.2,11.3,30.23,East,82,0.0,0.0,88,0.00,,,0.00,Wunderground v.1.15,2013-02-17 01:30:00,
2013-02-16 20:35:00,14.1,11.2,30.23,ENE,61,1.0,1.0,88,0.00,,,0.00,Wunderground v.1.15,2013-02-17 01:35:00,
2013-02-16 20:40:00,13.9,11.0,30.23,NE,46,0.0,7.0,88,0.00,,,0.00,Wunderground v.1.15,2013-02-17 01:40:00,
2013-02-16 20:50:00,13.9,11.3,30.23,ENE,61,1.0,1.0,89,0.00,,,0.00,Wunderground v.1.15,2013-02-17 01:50:00,
2013-02-16 20:55:00,13.9,11.3,30.22,NE,40,2.0,2.0,89,0.00,,,0.00,Wunderground v.1.15,2013-02-17 01:55:00,
2013-02-16 21:00:00,14.0,11.4,30.22,East,100,2.0,2.0,89,0.00,,,0.00,Wunderground v.1.15,2013-02-17 02:00:00,
2013-02-16 21:05:00,14.1,11.5,30.22,NE,49,3.0,3.0,89,0.00,,,0.00,Wunderground v.1.15,2013-02-17 02:05:00,
2013-02-16 21:15:00,14.2,11.3,30.22,NNE,13,5.0,7.0,88,0.00,,,0.00,Wunderground v.1.15,2013-02-17 02:15:00,
2013-02-16 21:25:00,14.2,11.3,30.22,North,360,4.0,7.0,88,0.00,,,0.00,Wunderground v.1.15,2013-02-17 02:25:00,
2013-02-16 21:30:00,14.1,10.9,30.22,NE,54,5.0,7.0,87,0.00,,,0.00,Wunderground v.1.15,2013-02-17 02:30:00,
2013-02-16 21:35:00,14.0,10.8,30.22,NNE,18,5.0,7.0,87,0.00,,,0.00,Wunderground v.1.15,2013-02-17 02:35:00,
2013-02-16 21:40:00,14.0,10.8,30.22,NE,47,5.0,7.0,87,0.00,,,0.00,Wunderground v.1.15,2013-02-17 02:40:00,
2013-02-16 21:45:00,13.9,10.7,30.23,ENE,63,5.0,7.0,87,0.00,,,0.00,Wunderground v.1.15,2013-02-17 02:45:00,
2013-02-16 21:55:00,13.9,10.7,30.23,NE,46,3.0,7.0,87,0.00,,,0.00,Wunderground v.1.15,2013-02-17 02:55:00,
2013-02-16 22:00:00,13.9,11.0,30.23,ENE,60,3.0,3.0,88,0.00,,,0.00,Wunderground v.1.15,2013-02-17 03:00:00,
2013-02-16 22:10:00,13.8,10.9,30.23,NE,42,3.0,4.0,88,0.00,,,0.00,Wunderground v.1.15,2013-02-17 03:10:00,
2013-02-16 22:15:00,13.8,10.9,30.23,NE,46,3.0,4.0,88,0.00,,,0.00,Wunderground v.1.15,2013-02-17 03:15:00,
2013-02-16 22:20:00,13.7,10.8,30.23,NE,46,3.0,5.0,88,0.00,,,0.00,Wunderground v.1.15,2013-02-17 03:20:00,
2013-02-16 22:30:00,13.7,10.5,30.23,NE,47,3.0,3.0,87,0.00,,,0.00,Wunderground v.1.15,2013-02-17 03:30:00,
2013-02-16 22:35:00,13.7,10.5,30.23,NNE,16,3.0,8.0,87,0.00,,,0.00,Wunderground v.1.15,2013-02-17 03:35:00,
2013-02-16 22:40:00,13.7,10.3,30.23,NE,39,4.0,10.0,86,0.00,,,0.00,Wunderground v.1.15,2013-02-17 03:40:00,
2013-02-16 22:45:00,13.7,10.3,30.23,ENE,70,3.0,10.0,86,0.00,,,0.00,Wunderground v.1.15,2013-02-17 03:45:00,
2013-02-16 22:50:00,13.6,10.2,30.23,ENE,68,3.0,10.0,86,0.00,,,0.00,Wunderground v.1.15,2013-02-17 03:50:00,
2013-02-16 22:55:00,13.6,10.2,30.23,ENE,67,3.0,10.0,86,0.00,,,0.00,Wunderground v.1.15,2013-02-17 03:55:00,
2013-02-16 23:05:00,13.5,10.1,30.23,SE,136,3.0,10.0,86,0.00,,,0.00,Wunderground v.1.15,2013-02-17 04:05:00,
2013-02-16 23:10:00,13.4,10.0,30.23,NNE,27,3.0,10.0,86,0.00,,,0.00,Wunderground v.1.15,2013-02-17 04:10:00,
2013-02-16 23:20:00,13.4,9.7,30.23,East,86,3.0,10.0,85,0.00,,,0.00,Wunderground v.1.15,2013-02-17 04:20:00,
2013-02-16 23:25:00,13.4,9.7,30.23,NE,50,4.0,10.0,85,0.00,,,0.00,Wunderground v.1.15,2013-02-17 04:25:00,
2013-02-16 23:30:00,13.5,9.8,30.23,ENE,69,5.0,10.0,85,0.00,,,0.00,Wunderground v.1.15,2013-02-17 04:30:00,
2013-02-16 23:40:00,13.5,9.6,30.22,ESE,112,6.0,6.0,84,0.00,,,0.00,Wunderground v.1.15,2013-02-17 04:40:00,
2013-02-16 23:45:00,13.6,9.4,30.22,NNE,20,5.0,8.0,83,0.00,,,0.00,Wunderground v.1.15,2013-02-17 04:45:00,
2013-02-16 23:50:00,13.6,9.4,30.23,NNE,26,5.0,10.0,83,0.00,,,0.00,Wunderground v.1.15,2013-02-17 04:50:00,
2013-02-16 23:55:00,13.6,9.4,30.23,NE,37,5.0,10.0,83,0.00,,,0.00,Wunderground v.1.15,2013-02-17 04:55:00,